Weather History for KAFK - February, 2014

Change the Weather History Date:

Sunday, February 16, 2014

  Actual Average (KSDA) Record (KSDA)
Temperature  
Mean Temperature 31 °F -  
Max Temperature 35 °F 36 °F 69 °F (1961)
Min Temperature 27 °F 15 °F -21 °F (1958)
Degree Days  
Heating Degree Days 34    
Moisture  
Dew Point 27 °F    
Average Humidity 85    
Maximum Humidity 90    
Minimum Humidity 73    
Precipitation  
Precipitation 0.00 in - - ()
Sea Level Pressure  
Sea Level Pressure 30.04 in    
Wind  
Wind Speed 8 mph (ESE)    
Max Wind Speed 16 mph    
Max Gust Speed 21 mph    
Visibility 9 miles    
Events      
Averages and records for this station are not official NWS values.
T = Trace of Precipitation, MM = Missing Value Source: NWS Daily Summary

Daily Weather History Graph

Daily Weather History Graph

Search for Another Location

Airport or City:

Trip Planner

Search our weather history database for the weather conditions in past years. The results will help you decide how hot, cold, wet, or windy it might be!

Date:

Astronomy

Feb. 16, 2014 Rise Set
Actual Time 7:15 AM CST 5:59 PM CST
Civil Twilight 6:47 AM CST 6:27 PM CST
Nautical Twilight 6:15 AM CST 6:59 PM CST
Astronomical Twilight 5:44 AM CST 7:31 PM CST
Moon 7:58 PM CST (2/16) 7:45 AM CST (2/16)
Length of Visible Light 11h 39m
Length of Day
10h 43m
Full, 97% of the Moon is Illuminated
Feb 16
Full
Feb 22
Last Quarter
Mar 1
New
Mar 8
First Quarter
Mar 16
Full

Hourly Weather History & Observations

Time (CST) Temp. Windchill Dew Point Humidity Pressure Visibility Wind Dir Wind Speed Gust Speed Precip Events Conditions
12:15 AM 32.0 °F 28.7 °F 28.4 °F 87% 30.06 in 10.0 mi North 3.5 mph - N/A   Scattered Clouds
12:35 AM 30.6 °F - 27.5 °F 88% 30.08 in 10.0 mi Calm Calm - N/A   Scattered Clouds
12:55 AM 30.7 °F 23.3 °F 27.5 °F 88% 30.08 in 10.0 mi NNW 8.1 mph - N/A   Scattered Clouds
1:15 AM 29.7 °F 22.8 °F 27.1 °F 90% 30.08 in 10.0 mi NW 6.9 mph - N/A   Clear
1:35 AM 29.7 °F 22.8 °F 26.6 °F 88% 30.09 in 10.0 mi NW 6.9 mph - N/A   Scattered Clouds
1:55 AM 29.5 °F 22.5 °F 26.6 °F 89% 30.10 in 7.0 mi NW 6.9 mph - N/A   Mostly Cloudy
2:15 AM 29.8 °F 21.5 °F 26.4 °F 87% 30.10 in 10.0 mi North 9.2 mph - N/A   Mostly Cloudy
2:35 AM 29.1 °F 22.1 °F 25.9 °F 88% 30.10 in 7.0 mi NNW 6.9 mph - N/A   Scattered Clouds
2:55 AM 28.0 °F 20.0 °F 25.2 °F 89% 30.11 in 7.0 mi NNW 8.1 mph - N/A   Scattered Clouds
3:15 AM 27.5 °F 19.3 °F 24.8 °F 90% 30.10 in 7.0 mi NNW 8.1 mph - N/A   Clear
3:35 AM 28.4 °F 19.1 °F 25.7 °F 90% 30.08 in 7.0 mi North 10.4 mph - N/A   Mostly Cloudy
3:55 AM 28.8 °F 20.9 °F 25.7 °F 88% 30.10 in 7.0 mi NNW 8.1 mph - N/A   Mostly Cloudy
4:15 AM 29.3 °F 22.3 °F 26.4 °F 89% 30.10 in 7.0 mi North 6.9 mph - N/A   Overcast
4:35 AM 29.7 °F 23.7 °F 26.6 °F 88% 30.11 in 7.0 mi NNW 5.8 mph - N/A   Overcast
4:55 AM 29.8 °F 24.9 °F 26.6 °F 88% 30.11 in 7.0 mi North 4.6 mph - N/A   Overcast
5:15 AM 29.8 °F 23.0 °F 26.6 °F 88% 30.11 in 7.0 mi North 6.9 mph - N/A   Overcast
5:35 AM 29.7 °F 23.7 °F 26.6 °F 88% 30.12 in 7.0 mi NNW 5.8 mph - N/A   Overcast
5:55 AM 29.3 °F 21.5 °F 26.6 °F 90% 30.12 in 7.0 mi NNE 8.1 mph - N/A   Overcast
6:15 AM 28.9 °F 21.9 °F 26.1 °F 89% 30.12 in 7.0 mi NNE 6.9 mph - N/A   Overcast
6:35 AM 28.4 °F 21.2 °F 25.7 °F 90% 30.12 in 7.0 mi NE 6.9 mph - N/A   Overcast
6:55 AM 28.0 °F 19.3 °F 25.3 °F 90% 30.12 in 5.0 mi NNE 9.2 mph - N/A   Overcast
7:15 AM 27.5 °F 18.0 °F 24.8 °F 90% 30.14 in 5.0 mi NE 10.4 mph - N/A   Overcast
7:35 AM 27.0 °F 17.3 °F 24.3 °F 90% 30.13 in 5.0 mi NE 10.4 mph - N/A   Overcast
7:55 AM 27.0 °F 21.6 °F 24.3 °F 90% 30.14 in 4.0 mi NE 4.6 mph - N/A   Overcast
8:15 AM 27.1 °F 23.2 °F 24.3 °F 89% 30.14 in 5.0 mi ENE 3.5 mph - N/A   Overcast
8:35 AM 27.5 °F - 24.8 °F 90% 30.15 in 5.0 mi Calm Calm - N/A   Overcast
8:55 AM 27.5 °F 21.1 °F 24.8 °F 90% 30.15 in 5.0 mi East 5.8 mph - N/A   Overcast
9:15 AM 28.0 °F 19.3 °F 25.2 °F 89% 30.15 in 10.0 mi East 9.2 mph - N/A   Overcast
9:35 AM 27.9 °F 20.6 °F 25.0 °F 89% 30.15 in 7.0 mi East 6.9 mph - N/A   Overcast
9:55 AM 27.9 °F 19.1 °F 24.8 °F 88% 30.16 in 7.0 mi ENE 9.2 mph - N/A   Overcast
10:15 AM 28.9 °F 21.9 °F 25.7 °F 88% 30.16 in 7.0 mi East 6.9 mph - N/A   Overcast
10:35 AM 28.9 °F 20.4 °F 25.3 °F 86% 30.15 in 10.0 mi East 9.2 mph - N/A   Overcast
10:55 AM 29.3 °F 21.5 °F 25.5 °F 86% 30.15 in 10.0 mi ESE 8.1 mph - N/A   Overcast
11:15 AM 29.8 °F 19.8 °F 25.5 °F 84% 30.14 in 10.0 mi ESE 12.7 mph - N/A   Overcast
11:35 AM 30.9 °F 20.7 °F 26.1 °F 82% 30.12 in 10.0 mi ESE 13.8 mph - N/A   Overcast
11:55 AM 31.1 °F 20.5 °F 26.1 °F 82% 30.10 in 10.0 mi ESE 15.0 mph 18.4 mph N/A   Overcast
12:15 PM 31.6 °F 23.7 °F 26.2 °F 80% 30.11 in 10.0 mi SSE 9.2 mph - N/A   Overcast
12:35 PM 32.0 °F 24.2 °F 26.2 °F 79% 30.11 in 10.0 mi SSE 9.2 mph - N/A   Overcast
12:55 PM 32.7 °F 25.7 °F 26.4 °F 78% 30.09 in 10.0 mi SSE 8.1 mph 11.5 mph N/A   Overcast
1:15 PM 34.0 °F 26.6 °F 27.1 °F 76% 30.07 in 10.0 mi SSE 9.2 mph - N/A   Mostly Cloudy
1:35 PM 35.8 °F 27.3 °F 27.9 °F 73% 30.05 in 10.0 mi SSE 12.7 mph - N/A   Scattered Clouds
1:55 PM 35.6 °F 28.0 °F 27.7 °F 73% 30.04 in 10.0 mi SE 10.4 mph 19.6 mph N/A   Clear
2:15 PM 35.6 °F 26.6 °F 27.9 °F 73% 30.03 in 10.0 mi SSE 13.8 mph - N/A   Clear
2:35 PM 35.4 °F 26.4 °F 27.5 °F 73% 30.02 in 10.0 mi SSE 13.8 mph - N/A   Clear
2:55 PM 34.9 °F 26.2 °F 27.7 °F 75% 30.02 in 10.0 mi SSE 12.7 mph - N/A   Clear
3:15 PM 34.7 °F 25.1 °F 27.7 °F 76% 30.01 in 10.0 mi SSE 15.0 mph - N/A   Clear
3:35 PM 34.5 °F 25.3 °F 27.5 °F 76% 29.99 in 10.0 mi SSE 13.8 mph 18.4 mph N/A   Clear
3:55 PM 34.5 °F 24.8 °F 28.2 °F 78% 29.99 in 10.0 mi SSE 15.0 mph - N/A   Clear
4:15 PM 34.2 °F 24.0 °F 28.2 °F 79% 29.98 in 10.0 mi SSE 16.1 mph - N/A   Scattered Clouds
4:35 PM 33.8 °F 25.8 °F 28.2 °F 80% 29.97 in 10.0 mi SSE 10.4 mph 16.1 mph N/A   Scattered Clouds
4:55 PM 33.1 °F 23.9 °F 28.2 °F 82% 29.97 in 10.0 mi SE 12.7 mph - N/A   Clear
5:15 PM 32.9 °F 23.2 °F 27.9 °F 82% 29.96 in 10.0 mi SE 13.8 mph 17.3 mph N/A   Clear
5:35 PM 32.5 °F 23.7 °F 27.7 °F 82% 29.96 in 10.0 mi SE 11.5 mph - N/A   Clear
5:55 PM 32.2 °F 22.7 °F 27.5 °F 83% 29.95 in 10.0 mi SE 12.7 mph - N/A   Clear
6:15 PM 32.0 °F 22.5 °F 27.5 °F 83% 29.95 in 10.0 mi SE 12.7 mph - N/A   Clear
6:35 PM 32.0 °F 21.6 °F 27.3 °F 83% 29.94 in 10.0 mi SE 15.0 mph 19.6 mph N/A   Clear
6:55 PM 31.8 °F 23.9 °F 27.3 °F 83% 29.95 in 10.0 mi SE 9.2 mph 16.1 mph N/A   Clear
7:15 PM 31.6 °F 23.1 °F 27.3 °F 84% 29.94 in 10.0 mi SE 10.4 mph - N/A   Clear
7:35 PM 31.5 °F 22.9 °F 27.3 °F 85% 29.94 in 10.0 mi SE 10.4 mph - N/A   Clear
7:55 PM 31.1 °F 22.4 °F 27.1 °F 85% 29.94 in 10.0 mi SE 10.4 mph - N/A   Clear
8:15 PM 31.1 °F 23.1 °F 27.0 °F 85% 29.94 in 10.0 mi SE 9.2 mph - N/A   Clear
8:35 PM 31.1 °F 21.4 °F 26.6 °F 83% 29.94 in 10.0 mi SE 12.7 mph - N/A   Scattered Clouds
8:55 PM 31.1 °F 20.9 °F 26.6 °F 83% 29.93 in 10.0 mi SE 13.8 mph 20.7 mph N/A   Scattered Clouds
9:15 PM 30.9 °F 22.8 °F 26.6 °F 84% 29.92 in 10.0 mi SE 9.2 mph - N/A   Clear
9:35 PM 30.6 °F 21.2 °F 26.4 °F 85% 29.92 in 10.0 mi SE 11.5 mph - N/A   Clear
9:55 PM 30.2 °F 22.6 °F 26.4 °F 86% 29.91 in 10.0 mi SE 8.1 mph - N/A   Clear
10:15 PM 29.8 °F 20.3 °F 26.2 °F 86% 29.89 in 10.0 mi SE 11.5 mph - N/A   Clear
10:35 PM 29.5 °F 21.8 °F 26.4 °F 88% 29.88 in 10.0 mi SE 8.1 mph - N/A   Clear
10:55 PM 29.8 °F 22.2 °F 26.6 °F 88% 29.88 in 10.0 mi SE 8.1 mph - N/A   Clear
11:15 PM 29.8 °F 20.3 °F 26.6 °F 88% 29.87 in 7.0 mi SE 11.5 mph - N/A   Clear
11:35 PM 29.7 °F 20.7 °F 26.6 °F 88% 29.86 in 7.0 mi SE 10.4 mph - N/A   Clear
11:55 PM 29.3 °F 22.3 °F 26.6 °F 90% 29.85 in 7.0 mi SE 6.9 mph - N/A   Clear